Time;durP1;ratioP1;P1;durP2;ratioP2;P2;SDS_P1;SDS_P2;PMS_P1;PMS_P2;Temp;Humidity;BMP_temperature;BMP_pressure;BME280_temperature;BME280_humidity;BME280_pressure;Samples;Min_cycle;Max_cycle;Signal;HPM_P1;HPM_P2
2024/02/01 00:00:18;;;;;;;17.43;8.23;;;;;;;6.17;100.00;97448.50;5075879;28;20574;-67
2024/02/01 00:02:46;;;;;;;20.07;8.70;;;;;;;6.36;100.00;97443.47;5075405;28;20211;-67
2024/02/01 00:05:12;;;;;;;19.27;7.77;;;;;;;6.28;100.00;97440.63;5076079;28;20200;-66
2024/02/01 00:07:38;;;;;;;18.13;8.17;;;;;;;6.30;100.00;97445.72;5074940;28;20204;-67
2024/02/01 00:10:06;;;;;;;18.47;8.07;;;;;;;6.37;100.00;97434.66;5075066;28;20763;-67
2024/02/01 00:12:33;;;;;;;19.60;7.80;;;;;;;6.06;100.00;97430.19;5075749;28;20204;-67
2024/02/01 00:14:59;;;;;;;22.10;9.23;;;;;;;6.20;100.00;97423.88;5076052;28;20499;-67
2024/02/01 00:17:26;;;;;;;15.80;7.73;;;;;;;6.18;100.00;97433.63;5077324;28;20203;-67
2024/02/01 00:19:53;;;;;;;18.73;8.10;;;;;;;6.47;100.00;97432.97;5078354;28;20853;-67
2024/02/01 00:22:20;;;;;;;16.73;8.13;;;;;;;6.26;100.00;97421.63;5079185;28;20481;-67
2024/02/01 00:24:46;;;;;;;17.57;8.23;;;;;;;6.34;100.00;97420.97;5079214;28;20203;-67
2024/02/01 00:27:13;;;;;;;21.83;7.90;;;;;;;6.50;100.00;97424.84;5079168;28;20204;-67
2024/02/01 00:29:39;;;;;;;16.80;8.13;;;;;;;6.38;100.00;97419.81;5078428;28;20215;-67
2024/02/01 00:32:05;;;;;;;17.77;8.20;;;;;;;6.44;100.00;97424.53;5079023;28;20210;-67
2024/02/01 00:34:32;;;;;;;19.60;8.80;;;;;;;6.49;100.00;97428.47;5078969;28;20386;-67
2024/02/01 00:37:00;;;;;;;18.40;8.50;;;;;;;6.64;100.00;97421.97;5079019;28;20199;-67
2024/02/01 00:39:27;;;;;;;18.77;8.20;;;;;;;6.49;100.00;97420.59;5078204;28;20410;-67
2024/02/01 00:41:53;;;;;;;20.47;8.20;;;;;;;6.44;100.00;97404.44;5078645;28;20210;-67
2024/02/01 00:44:20;;;;;;;19.07;7.83;;;;;;;6.25;100.00;97414.72;5078966;28;20192;-67
2024/02/01 00:46:46;;;;;;;18.93;8.60;;;;;;;6.21;100.00;97410.66;5078250;28;20210;-67
2024/02/01 00:49:13;;;;;;;17.87;8.00;;;;;;;6.28;100.00;97429.34;5078102;28;20314;-66
2024/02/01 00:51:39;;;;;;;18.23;8.03;;;;;;;6.31;100.00;97434.31;5078533;28;20204;-67
2024/02/01 00:54:07;;;;;;;23.80;8.73;;;;;;;6.62;100.00;97423.88;5078355;28;20223;-67
2024/02/01 00:56:33;;;;;;;26.60;8.93;;;;;;;6.31;100.00;97431.69;5078248;28;20210;-66
2024/02/01 00:59:00;;;;;;;26.33;9.07;;;;;;;6.44;100.00;97429.75;5077489;28;20594;-67
2024/02/01 01:01:26;;;;;;;21.57;8.77;;;;;;;6.48;100.00;97425.94;5078180;28;20196;-67
2024/02/01 01:03:54;;;;;;;17.37;8.30;;;;;;;6.49;100.00;97423.22;5078438;28;20203;-67
2024/02/01 01:06:21;;;;;;;23.50;9.53;;;;;;;6.45;100.00;97421.78;5079335;28;20204;-67
2024/02/01 01:08:47;;;;;;;21.53;8.43;;;;;;;6.42;100.00;97411.56;5077652;28;20717;-67
2024/02/01 01:11:15;;;;;;;20.87;8.30;;;;;;;6.55;100.00;97430.56;5078343;28;20196;-66
2024/02/01 01:13:42;;;;;;;22.33;9.33;;;;;;;6.38;100.00;97423.22;5078791;28;20992;-67
2024/02/01 01:16:08;;;;;;;21.07;8.40;;;;;;;6.46;100.00;97423.44;5078349;28;20223;-67
2024/02/01 01:18:35;;;;;;;19.80;9.20;;;;;;;6.57;100.00;97420.81;5076590;28;20199;-67
2024/02/01 01:21:01;;;;;;;21.57;9.00;;;;;;;6.46;100.00;97422.63;5078254;28;20204;-67
2024/02/01 01:23:28;;;;;;;21.93;8.77;;;;;;;6.54;100.00;97414.97;5078527;28;20196;-67
2024/02/01 01:25:54;;;;;;;20.50;8.80;;;;;;;6.55;100.00;97420.09;5077750;28;20208;-67
2024/02/01 01:28:22;;;;;;;18.80;8.20;;;;;;;6.68;100.00;97428.59;5077539;28;20577;-67
2024/02/01 01:30:49;;;;;;;25.57;9.17;;;;;;;6.46;100.00;97420.00;5077956;28;20204;-67
2024/02/01 01:33:16;;;;;;;21.27;8.10;;;;;;;6.54;100.00;97422.84;5077516;28;20227;-67
2024/02/01 01:35:42;;;;;;;22.37;9.23;;;;;;;6.63;100.00;97419.47;5077830;28;20455;-67
2024/02/01 01:38:09;;;;;;;22.73;8.90;;;;;;;6.53;100.00;97415.94;5077430;28;20206;-67
2024/02/01 01:40:35;;;;;;;19.17;8.13;;;;;;;6.62;100.00;97418.66;5077193;28;20716;-67
2024/02/01 01:43:02;;;;;;;18.40;8.07;;;;;;;6.68;100.00;97403.28;5077724;28;20196;-67
2024/02/01 01:45:30;;;;;;;19.00;7.53;;;;;;;6.67;100.00;97411.25;5077745;28;20196;-67
2024/02/01 01:47:57;;;;;;;16.13;6.77;;;;;;;6.72;100.00;97406.44;5076595;28;20199;-67
2024/02/01 01:50:24;;;;;;;19.40;8.10;;;;;;;6.64;100.00;97406.25;5076944;28;20230;-66
2024/02/01 01:52:52;;;;;;;19.83;7.97;;;;;;;6.88;100.00;97401.63;5077682;28;20216;-66
2024/02/01 01:55:19;;;;;;;26.87;8.63;;;;;;;6.80;100.00;97401.44;5077262;28;20228;-67
2024/02/01 01:57:45;;;;;;;20.00;7.77;;;;;;;6.65;100.00;97402.69;5076923;28;20215;-67
2024/02/01 02:00:13;;;;;;;20.57;8.50;;;;;;;6.93;100.00;97388.97;5076952;28;20226;-67
2024/02/01 02:02:43;;;;;;;27.80;8.83;;;;;;;6.98;100.00;97392.88;5076759;28;20214;-67
2024/02/01 02:05:11;;;;;;;19.87;8.43;;;;;;;6.88;100.00;97383.28;5076849;28;20200;-67
2024/02/01 02:07:39;;;;;;;21.77;9.00;;;;;;;6.90;100.00;97386.63;5076887;28;20210;-67
2024/02/01 02:10:06;;;;;;;20.50;7.87;;;;;;;6.71;100.00;97378.63;5076903;28;20227;-67
2024/02/01 02:12:33;;;;;;;24.70;8.93;;;;;;;6.66;100.00;97384.22;5076967;28;20207;-67
2024/02/01 02:15:01;;;;;;;20.27;8.60;;;;;;;6.70;100.00;97387.41;5076736;28;20231;-67
2024/02/01 02:17:28;;;;;;;24.80;8.97;;;;;;;6.62;100.00;97383.75;5076876;28;20537;-67
2024/02/01 02:19:56;;;;;;;24.27;7.87;;;;;;;6.71;100.00;97376.00;5076062;28;20226;-67
2024/02/01 02:22:25;;;;;;;20.63;8.30;;;;;;;6.90;100.00;97374.34;5077290;28;20199;-67
2024/02/01 02:24:52;;;;;;;17.97;7.90;;;;;;;6.68;100.00;97374.44;5076526;28;20676;-66
2024/02/01 02:27:20;;;;;;;18.70;7.40;;;;;;;6.84;100.00;97381.88;5076163;28;20203;-67
2024/02/01 02:29:46;;;;;;;15.17;6.83;;;;;;;6.87;100.00;97390.31;5076278;28;20219;-67
2024/02/01 02:32:13;;;;;;;14.87;6.13;;;;;;;6.72;100.00;97385.50;5077818;28;20200;-67
2024/02/01 02:34:40;;;;;;;21.23;7.93;;;;;;;6.76;100.00;97379.06;5076308;28;20242;-67
2024/02/01 02:37:08;;;;;;;19.73;7.53;;;;;;;6.73;100.00;97374.06;5076634;28;20200;-66
2024/02/01 02:39:37;;;;;;;13.20;6.50;;;;;;;6.96;100.00;97380.84;5075990;28;20220;-67
2024/02/01 02:42:04;;;;;;;16.63;7.93;;;;;;;6.85;100.00;97388.78;5076832;28;20207;-67
2024/02/01 02:44:30;;;;;;;16.97;6.93;;;;;;;6.73;100.00;97379.31;5076117;28;20299;-67
2024/02/01 02:46:57;;;;;;;18.50;6.77;;;;;;;6.80;100.00;97393.56;5076181;28;20222;-67
2024/02/01 02:49:24;;;;;;;17.27;7.13;;;;;;;6.85;100.00;97391.41;5075875;28;20220;-66
2024/02/01 02:51:51;;;;;;;17.00;6.90;;;;;;;6.79;100.00;97386.66;5076235;28;20204;-67
2024/02/01 02:54:17;;;;;;;16.50;6.63;;;;;;;6.66;100.00;97405.16;5076382;28;20732;-67
2024/02/01 02:56:45;;;;;;;18.23;7.60;;;;;;;7.01;100.00;97394.41;5076454;28;20282;-67
2024/02/01 02:59:12;;;;;;;15.13;6.63;;;;;;;6.97;100.00;97391.19;5075733;28;20230;-68
2024/02/01 03:01:40;;;;;;;15.13;6.73;;;;;;;6.98;100.00;97394.66;5076832;28;20199;-67
2024/02/01 03:04:08;;;;;;;13.83;5.97;;;;;;;6.89;100.00;97390.19;5076411;28;20199;-67
2024/02/01 03:06:34;;;;;;;13.90;6.90;;;;;;;7.03;100.00;97392.50;5076279;28;20611;-67
2024/02/01 03:09:01;;;;;;;19.47;7.33;;;;;;;6.97;100.00;97388.59;5075481;28;20235;-67
2024/02/01 03:11:27;;;;;;;16.30;7.37;;;;;;;6.97;100.00;97393.00;5076301;28;20211;-67
2024/02/01 03:13:55;;;;;;;16.80;6.40;;;;;;;7.14;100.00;97395.91;5075654;28;20223;-67
2024/02/01 03:16:23;;;;;;;14.17;6.40;;;;;;;7.00;100.00;97397.97;5075699;28;20534;-66
2024/02/01 03:18:50;;;;;;;15.67;6.87;;;;;;;7.08;100.00;97390.34;5075558;28;20227;-67
2024/02/01 03:21:19;;;;;;;12.30;6.53;;;;;;;7.19;100.00;97392.88;5075443;28;20204;-67
2024/02/01 03:23:47;;;;;;;17.57;6.17;;;;;;;6.97;100.00;97393.81;5076061;28;20212;-67
2024/02/01 03:26:14;;;;;;;13.67;6.40;;;;;;;7.02;100.00;97396.06;5075769;28;20199;-66
2024/02/01 03:28:43;;;;;;;13.47;6.60;;;;;;;7.20;100.00;97397.16;5075747;28;20579;-67
2024/02/01 03:31:12;;;;;;;11.47;5.63;;;;;;;7.26;100.00;97390.44;5075930;28;20211;-67
2024/02/01 03:33:39;;;;;;;8.80;4.70;;;;;;;7.10;100.00;97404.13;5076726;28;20254;-67
2024/02/01 03:36:08;;;;;;;17.93;6.30;;;;;;;7.18;100.00;97412.16;5074448;28;20735;-67
2024/02/01 03:38:34;;;;;;;15.17;6.67;;;;;;;7.12;100.00;97407.47;5074938;28;21261;-67
2024/02/01 03:41:01;;;;;;;10.33;5.10;;;;;;;6.87;100.00;97400.81;5076852;28;20211;-67
2024/02/01 03:43:28;;;;;;;17.80;6.50;;;;;;;7.07;100.00;97414.88;5076299;28;20580;-66
2024/02/01 03:45:54;;;;;;;13.87;5.13;;;;;;;6.91;100.00;97404.84;5075294;28;20203;-67
2024/02/01 03:48:21;;;;;;;14.27;6.07;;;;;;;7.16;100.00;97414.09;5075098;28;20206;-67
2024/02/01 03:50:49;;;;;;;15.13;6.77;;;;;;;6.98;100.00;97405.97;5076075;28;20204;-67
2024/02/01 03:53:16;;;;;;;13.63;6.53;;;;;;;7.00;100.00;97417.16;5078700;28;20651;-67
2024/02/01 03:55:42;;;;;;;20.03;6.13;;;;;;;6.80;100.00;97409.28;5079239;28;20612;-67
2024/02/01 03:58:10;;;;;;;17.47;7.63;;;;;;;7.10;100.00;97410.19;5079186;28;20203;-67
2024/02/01 04:00:37;;;;;;;14.47;6.90;;;;;;;7.06;100.00;97427.13;5080262;28;20447;-67
2024/02/01 04:03:04;;;;;;;14.77;6.33;;;;;;;7.20;100.00;97415.50;5079960;28;20218;-67
2024/02/01 04:05:37;;;;;;;15.27;7.00;;;;;;;7.25;100.00;97415.97;5079291;28;20678;-67
2024/02/01 04:08:07;;;;;;;17.23;7.17;;;;;;;7.27;100.00;97414.88;5079103;28;20199;-67
2024/02/01 04:10:34;;;;;;;17.13;7.03;;;;;;;7.16;100.00;97424.59;5078587;28;20234;-67
2024/02/01 04:13:00;;;;;;;20.43;6.27;;;;;;;7.13;100.00;97422.19;5079440;28;20208;-67
2024/02/01 04:15:27;;;;;;;16.10;7.57;;;;;;;7.10;100.00;97425.09;5078968;28;20509;-67
2024/02/01 04:17:53;;;;;;;15.77;6.33;;;;;;;7.29;100.00;97429.50;5078346;28;20603;-67
2024/02/01 04:20:20;;;;;;;11.43;5.70;;;;;;;7.26;100.00;97428.13;5078744;28;20709;-67
2024/02/01 04:22:53;;;;;;;16.00;6.70;;;;;;;7.48;100.00;97421.75;5079603;28;20203;-67
2024/02/01 04:25:20;;;;;;;16.33;7.37;;;;;;;7.30;100.00;97414.59;5079047;28;20196;-67
2024/02/01 04:27:49;;;;;;;20.87;7.10;;;;;;;7.28;100.00;97408.69;5078172;28;20204;-67
2024/02/01 04:30:18;;;;;;;16.77;6.03;;;;;;;7.36;100.00;97395.75;5078699;28;20590;-67
2024/02/01 04:32:45;;;;;;;15.30;5.77;;;;;;;7.28;100.00;97393.75;5078295;28;20204;-67
2024/02/01 04:35:12;;;;;;;15.47;5.73;;;;;;;7.16;100.00;97388.72;5078871;28;20254;-67
2024/02/01 04:37:39;;;;;;;14.93;6.30;;;;;;;7.28;100.00;97388.53;5078523;28;20202;-67
2024/02/01 04:40:08;;;;;;;15.03;6.37;;;;;;;7.35;100.00;97389.66;5078034;28;20231;-67
2024/02/01 04:42:35;;;;;;;17.20;7.07;;;;;;;7.38;100.00;97389.41;5078516;28;20940;-67
2024/02/01 04:45:04;;;;;;;16.23;6.80;;;;;;;7.39;100.00;97385.81;5079617;28;20203;-67
2024/02/01 04:47:31;;;;;;;18.50;7.97;;;;;;;7.43;100.00;97391.63;5078898;28;20203;-67
2024/02/01 04:49:56;;;;;;;17.87;6.57;;;;;;;7.49;100.00;97402.44;5077978;28;20531;-67
2024/02/01 04:52:23;;;;;;;20.63;7.70;;;;;;;7.53;100.00;97395.97;5079568;28;20200;-67
2024/02/01 04:54:49;;;;;;;15.50;7.37;;;;;;;7.53;100.00;97392.53;5079808;28;20227;-67
2024/02/01 04:57:17;;;;;;;23.10;10.33;;;;;;;7.74;100.00;97388.03;5078427;28;20211;-67
2024/02/01 04:59:44;;;;;;;27.00;8.37;;;;;;;7.52;100.00;97389.06;5077585;28;20246;-67
2024/02/01 05:02:11;;;;;;;16.80;7.73;;;;;;;7.67;100.00;97385.13;5078643;28;20291;-67
2024/02/01 05:04:37;;;;;;;27.07;10.80;;;;;;;7.52;100.00;97383.84;5078299;28;20203;-67
2024/02/01 05:07:05;;;;;;;21.60;9.90;;;;;;;7.77;100.00;97378.13;5077973;28;20210;-67
2024/02/01 05:09:33;;;;;;;18.07;7.80;;;;;;;7.80;100.00;97383.09;5077521;28;20319;-67
2024/02/01 05:12:00;;;;;;;19.00;8.17;;;;;;;7.66;100.00;97375.63;5078585;28;20227;-67
2024/02/01 05:14:28;;;;;;;23.97;8.43;;;;;;;7.86;100.00;97370.28;5077919;28;20196;-67
2024/02/01 05:16:54;;;;;;;29.77;8.90;;;;;;;7.61;100.00;97369.09;5077857;28;20204;-67
2024/02/01 05:19:21;;;;;;;21.50;7.27;;;;;;;7.72;100.00;97367.19;5077472;28;20227;-67
2024/02/01 05:21:48;;;;;;;21.70;7.57;;;;;;;7.72;100.00;97354.06;5078044;28;20203;-67
2024/02/01 05:24:15;;;;;;;29.27;8.23;;;;;;;7.74;100.00;97346.91;5077986;28;20212;-67
2024/02/01 05:26:41;;;;;;;24.63;9.27;;;;;;;7.67;100.00;97361.50;5078027;28;20944;-67
2024/02/01 05:29:09;;;;;;;15.03;6.87;;;;;;;7.63;100.00;97361.94;5077457;28;20231;-67
2024/02/01 05:31:38;;;;;;;26.20;7.90;;;;;;;7.88;100.00;97365.75;5078268;28;21307;-67
2024/02/01 05:34:05;;;;;;;19.67;7.87;;;;;;;7.70;100.00;97361.25;5078496;28;20727;-67
2024/02/01 05:36:33;;;;;;;24.23;8.23;;;;;;;7.73;100.00;97358.38;5078081;28;20570;-67
2024/02/01 05:38:59;;;;;;;17.03;7.13;;;;;;;7.65;100.00;97357.34;5077688;28;20282;-67
2024/02/01 05:41:26;;;;;;;12.17;5.47;;;;;;;7.77;100.00;97357.13;5078290;28;20204;-67
2024/02/01 05:43:52;;;;;;;18.50;6.43;;;;;;;7.82;100.00;97354.94;5078837;28;20204;-67
2024/02/01 05:46:19;;;;;;;14.17;6.10;;;;;;;7.91;100.00;97359.41;5077554;28;20284;-69
2024/02/01 05:48:47;;;;;;;16.47;6.57;;;;;;;7.95;100.00;97356.34;5077433;28;20661;-67
2024/02/01 05:51:14;;;;;;;13.70;6.50;;;;;;;7.95;100.00;97353.72;5077891;28;20212;-68
2024/02/01 05:53:41;;;;;;;21.17;8.63;;;;;;;7.86;100.00;97344.03;5078416;28;20235;-68
2024/02/01 05:56:07;;;;;;;14.10;6.47;;;;;;;7.97;100.00;97349.19;5077848;28;20234;-69
2024/02/01 05:58:34;;;;;;;18.13;6.67;;;;;;;8.00;100.00;97361.22;5077400;28;20199;-68
2024/02/01 06:01:00;;;;;;;19.10;6.90;;;;;;;7.98;100.00;97357.88;5077847;28;20204;-69
2024/02/01 06:03:27;;;;;;;18.33;6.40;;;;;;;7.95;100.00;97358.16;5078067;28;20835;-69
2024/02/01 06:05:55;;;;;;;16.77;6.70;;;;;;;8.20;100.00;97357.72;5078164;28;20208;-69
2024/02/01 06:08:21;;;;;;;15.97;5.07;;;;;;;7.89;100.00;97363.94;5077017;28;20195;-69
2024/02/01 06:10:48;;;;;;;13.97;6.23;;;;;;;8.03;100.00;97353.06;5077740;28;20222;-68
2024/02/01 06:13:14;;;;;;;19.50;6.87;;;;;;;8.18;100.00;97349.13;5077595;28;20199;-68
2024/02/01 06:15:41;;;;;;;14.80;6.27;;;;;;;8.07;100.00;97352.66;5076806;28;20234;-68
2024/02/01 06:18:07;;;;;;;17.13;5.47;;;;;;;8.01;100.00;97357.63;5076819;28;20918;-68
2024/02/01 06:20:34;;;;;;;11.30;4.93;;;;;;;7.97;100.00;97345.75;5076948;28;20220;-68
2024/02/01 06:23:04;;;;;;;12.30;5.30;;;;;;;8.14;100.00;97343.31;5077267;28;20269;-68
2024/02/01 06:25:30;;;;;;;17.83;5.97;;;;;;;8.07;100.00;97336.06;5077202;28;20196;-68
2024/02/01 06:27:57;;;;;;;12.63;5.67;;;;;;;8.06;100.00;97337.88;5077051;28;20203;-68
2024/02/01 06:30:24;;;;;;;15.97;5.67;;;;;;;8.19;100.00;97343.75;5076142;28;20215;-69
2024/02/01 06:32:50;;;;;;;11.63;4.93;;;;;;;7.99;100.00;97343.78;5076857;28;20383;-68
2024/02/01 06:35:17;;;;;;;16.50;6.30;;;;;;;8.09;100.00;97344.66;5076983;28;20706;-69
2024/02/01 06:37:51;;;;;;;15.73;6.43;;;;;;;7.96;100.00;97349.31;5076526;28;20729;-69
2024/02/01 06:40:37;;;;;;;12.83;6.20;;;;;;;8.22;100.00;97353.13;5077161;28;20226;-69
2024/02/01 06:43:11;;;;;;;10.87;4.93;;;;;;;8.07;100.00;97357.06;5076144;28;20294;-69
2024/02/01 06:45:45;;;;;;;17.77;7.37;;;;;;;8.07;100.00;97352.66;5077526;28;20199;-69
2024/02/01 06:48:12;;;;;;;18.47;7.50;;;;;;;7.91;100.00;97356.78;5076243;28;20546;-69
2024/02/01 06:50:54;;;;;;;13.57;5.50;;;;;;;7.94;100.00;97356.50;5076443;28;20223;-69
2024/02/01 06:53:23;;;;;;;15.30;6.27;;;;;;;7.93;100.00;97362.72;5077179;28;20214;-69
2024/02/01 06:55:59;;;;;;;16.20;7.43;;;;;;;8.14;100.00;97355.63;5077520;28;20231;-69
2024/02/01 06:58:39;;;;;;;19.93;7.77;;;;;;;7.96;100.00;97355.41;5076220;28;20199;-69
2024/02/01 07:03:57;;;;;;;24.03;7.90;;;;;;;7.97;100.00;97366.75;5076601;28;20204;-68
2024/02/01 07:06:33;;;;;;;18.60;7.57;;;;;;;7.84;100.00;97371.41;5076512;28;21158;-69
2024/02/01 07:11:48;;;;;;;16.70;6.87;;;;;;;8.01;100.00;97363.69;5076631;28;20207;-70
2024/02/01 07:14:16;;;;;;;18.97;7.13;;;;;;;7.85;100.00;97374.84;5076326;28;20203;-69
2024/02/01 07:16:55;;;;;;;22.20;7.43;;;;;;;7.87;100.00;97369.31;5076435;28;20249;-68
2024/02/01 07:19:39;;;;;;;19.17;7.13;;;;;;;7.77;100.00;97379.94;5075543;28;20233;-70
2024/02/01 07:22:06;;;;;;;18.20;6.57;;;;;;;7.81;100.00;97390.00;5076356;28;20203;-69
2024/02/01 07:24:46;;;;;;;12.20;6.33;;;;;;;7.80;100.00;97396.22;5076751;28;20658;-69
2024/02/01 07:57:51;;;;;;;27.20;9.13;;;;;;;7.49;100.00;97460.13;5079748;28;20211;-70
2024/02/01 08:00:27;;;;;;;23.47;9.27;;;;;;;7.65;100.00;97450.03;5079144;28;20226;-70
2024/02/01 08:03:03;;;;;;;23.40;9.50;;;;;;;7.53;100.00;97458.09;5080398;28;20241;-68
2024/02/01 08:08:14;;;;;;;29.13;9.20;;;;;;;7.20;100.00;97433.84;5080035;28;20695;-69
2024/02/01 08:10:41;;;;;;;27.10;9.50;;;;;;;7.37;100.00;97407.91;5079253;28;20231;-68
2024/02/01 08:13:08;;;;;;;29.53;9.50;;;;;;;7.40;100.00;97386.66;5079741;28;20203;-68
2024/02/01 08:15:37;;;;;;;25.77;9.40;;;;;;;7.64;100.00;97410.81;5079667;28;20220;-69
2024/02/01 08:18:08;;;;;;;27.17;10.03;;;;;;;7.69;100.00;97416.47;5078793;28;20674;-67
2024/02/01 08:20:34;;;;;;;24.07;8.50;;;;;;;7.53;100.00;97419.56;5079777;28;20250;-69
2024/02/01 08:23:01;;;;;;;21.77;8.10;;;;;;;7.52;100.00;97428.41;5079813;28;20203;-69
2024/02/01 08:25:30;;;;;;;26.57;10.87;;;;;;;7.56;100.00;97429.81;5078938;28;20204;-69
2024/02/01 08:27:57;;;;;;;19.63;8.43;;;;;;;7.42;100.00;97427.53;5079451;28;20646;-69
2024/02/01 08:30:27;;;;;;;20.50;8.47;;;;;;;7.64;100.00;97430.00;5079141;28;20227;-69
2024/02/01 08:32:57;;;;;;;19.00;9.13;;;;;;;7.61;100.00;97434.66;5079272;28;20231;-69
2024/02/01 08:35:24;;;;;;;24.70;9.47;;;;;;;7.45;100.00;97432.50;5079576;28;20747;-69
2024/02/01 08:37:55;;;;;;;23.40;9.53;;;;;;;7.30;100.00;97427.72;5078205;28;20610;-68
2024/02/01 08:40:22;;;;;;;24.63;10.23;;;;;;;7.49;100.00;97427.84;5078556;28;20314;-68
2024/02/01 08:42:57;;;;;;;32.20;11.27;;;;;;;7.58;100.00;97434.94;5078843;28;20211;-69
2024/02/01 08:45:25;;;;;;;25.87;11.53;;;;;;;7.57;100.00;97428.00;5078699;28;20687;-68
2024/02/01 08:47:51;;;;;;;30.00;11.17;;;;;;;7.54;100.00;97436.16;5077975;28;20204;-68
2024/02/01 08:50:19;;;;;;;23.27;9.73;;;;;;;7.64;100.00;97427.38;5078629;28;20227;-69
2024/02/01 08:52:46;;;;;;;27.83;10.03;;;;;;;7.52;100.00;97428.41;5078274;28;21403;-68
2024/02/01 08:55:14;;;;;;;28.23;11.50;;;;;;;7.69;100.00;97425.19;5078560;28;20207;-69
2024/02/01 08:57:41;;;;;;;23.23;10.07;;;;;;;7.77;100.00;97427.16;5078185;28;20212;-69
2024/02/01 09:00:25;;;;;;;27.70;10.83;;;;;;;7.71;100.00;97428.50;5078585;28;20277;-69
2024/02/01 09:03:03;;;;;;;29.07;12.17;;;;;;;7.84;100.00;97429.13;5078396;28;20200;-69
2024/02/01 09:05:35;;;;;;;27.63;11.07;;;;;;;7.93;100.00;97431.78;5078390;28;20682;-69
2024/02/01 09:08:03;;;;;;;28.20;10.80;;;;;;;7.64;100.00;97437.84;5078035;28;20370;-69
2024/02/01 09:10:30;;;;;;;31.27;12.10;;;;;;;7.81;100.00;97436.44;5077468;28;20470;-69
2024/02/01 09:12:57;;;;;;;28.30;10.67;;;;;;;7.62;100.00;97437.16;5078273;28;20529;-68
2024/02/01 09:15:23;;;;;;;27.33;10.20;;;;;;;7.59;100.00;97444.47;5078076;28;20207;-69
2024/02/01 09:17:50;;;;;;;34.10;12.23;;;;;;;7.62;100.00;97442.38;5078005;28;20223;-69
2024/02/01 09:20:21;;;;;;;26.23;10.77;;;;;;;7.72;100.00;97445.91;5078086;28;20770;-69
2024/02/01 09:22:51;;;;;;;25.83;9.33;;;;;;;7.85;100.00;97443.88;5079419;28;20315;-69
2024/02/01 09:25:22;;;;;;;34.23;11.60;;;;;;;7.85;100.00;97443.88;5077776;28;20204;-69
2024/02/01 09:27:49;;;;;;;24.70;10.93;;;;;;;7.69;100.00;97446.19;5076403;28;20666;-69
2024/02/01 09:30:19;;;;;;;26.27;10.77;;;;;;;7.56;100.00;97442.06;5078491;28;20231;-68
2024/02/01 09:32:49;;;;;;;25.80;10.53;;;;;;;7.73;100.00;97452.81;5077874;28;20756;-68
2024/02/01 09:35:16;;;;;;;27.30;11.07;;;;;;;7.81;100.00;97455.63;5077085;28;20207;-69
2024/02/01 09:37:43;;;;;;;30.87;13.17;;;;;;;7.83;100.00;97448.47;5077688;28;20230;-68
2024/02/01 09:40:12;;;;;;;22.97;9.33;;;;;;;7.79;100.00;97462.81;5077882;28;20746;-68
2024/02/01 09:42:41;;;;;;;32.97;11.53;;;;;;;7.76;100.00;97464.84;5077228;28;20207;-69
2024/02/01 09:45:09;;;;;;;26.70;11.43;;;;;;;7.92;100.00;97468.66;5077366;28;20272;-69
2024/02/01 09:47:43;;;;;;;22.57;9.73;;;;;;;7.94;100.00;97466.72;5076663;28;20207;-68
2024/02/01 09:50:12;;;;;;;32.80;11.97;;;;;;;8.03;100.00;97463.31;5076014;28;20238;-68
2024/02/01 09:52:39;;;;;;;33.30;13.23;;;;;;;7.87;100.00;97481.34;5077200;28;20239;-69
2024/02/01 09:55:07;;;;;;;30.00;11.53;;;;;;;7.94;100.00;97474.59;5077234;28;20204;-69
2024/02/01 09:57:40;;;;;;;30.73;11.03;;;;;;;7.99;100.00;97475.03;5077511;28;20461;-68
2024/02/01 10:00:12;;;;;;;29.80;10.60;;;;;;;8.01;100.00;97478.38;5077083;28;20227;-69
2024/02/01 10:02:39;;;;;;;25.27;11.27;;;;;;;8.09;100.00;97481.16;5080072;28;20199;-69
2024/02/01 10:05:07;;;;;;;34.57;12.37;;;;;;;8.05;100.00;97487.66;5083174;28;20689;-69
2024/02/01 10:07:34;;;;;;;32.60;12.57;;;;;;;8.02;100.00;97480.03;5083821;28;20200;-69
2024/02/01 10:10:02;;;;;;;25.63;9.97;;;;;;;7.85;100.00;97472.75;5083067;28;20243;-69
2024/02/01 10:12:29;;;;;;;24.77;10.60;;;;;;;8.09;100.00;97476.72;5083097;28;20211;-69
2024/02/01 10:14:57;;;;;;;32.93;12.40;;;;;;;8.27;100.00;97475.19;5077323;28;20689;-69
2024/02/01 10:17:24;;;;;;;24.43;10.77;;;;;;;8.19;100.00;97476.81;5076933;28;20223;-69
2024/02/01 10:19:52;;;;;;;23.93;10.17;;;;;;;8.11;100.00;97472.19;5075894;28;20262;-68
2024/02/01 10:22:19;;;;;;;30.50;10.53;;;;;;;8.27;100.00;97471.72;5077400;28;20244;-69
2024/02/01 10:24:49;;;;;;;28.97;11.40;;;;;;;8.28;100.00;97479.47;5077303;28;20211;-69
2024/02/01 10:27:19;;;;;;;25.70;11.50;;;;;;;8.04;100.00;97480.72;5076722;28;20196;-68
2024/02/01 10:29:46;;;;;;;27.63;10.17;;;;;;;8.28;100.00;97481.28;5076370;28;20295;-69
2024/02/01 10:32:15;;;;;;;28.27;11.27;;;;;;;8.19;100.00;97477.63;5077214;28;20221;-68
2024/02/01 10:34:50;;;;;;;35.40;11.17;;;;;;;8.30;100.00;97469.69;5076629;28;20207;-69
2024/02/01 10:37:18;;;;;;;23.53;9.17;;;;;;;8.22;100.00;97471.28;5076573;28;20231;-69
2024/02/01 10:39:54;;;;;;;23.17;9.73;;;;;;;8.43;100.00;97464.19;5076027;28;20681;-69
2024/02/01 10:42:22;;;;;;;22.97;10.10;;;;;;;8.41;100.00;97471.38;5076547;28;20214;-69
2024/02/01 10:44:54;;;;;;;25.90;10.47;;;;;;;8.40;100.00;97467.06;5076199;28;20207;-69
2024/02/01 10:47:27;;;;;;;19.63;9.13;;;;;;;8.30;100.00;97458.31;5075676;28;20677;-69
2024/02/01 10:49:56;;;;;;;19.63;9.33;;;;;;;8.23;100.00;97458.03;5075967;28;20223;-69
2024/02/01 10:52:23;;;;;;;21.83;9.53;;;;;;;8.28;100.00;97457.66;5076549;28;20196;-69
2024/02/01 10:54:54;;;;;;;22.53;8.77;;;;;;;8.39;100.00;97447.00;5077141;28;20657;-69
2024/02/01 10:57:22;;;;;;;27.73;9.03;;;;;;;8.30;100.00;97456.53;5076143;28;20235;-69
2024/02/01 10:59:50;;;;;;;24.40;9.23;;;;;;;8.35;100.00;97449.09;5075243;28;20235;-69
2024/02/01 11:02:19;;;;;;;22.20;10.23;;;;;;;8.39;100.00;97449.63;5076103;28;20207;-69
2024/02/01 11:04:48;;;;;;;25.13;10.30;;;;;;;8.55;100.00;97450.78;5077260;28;20678;-69
2024/02/01 11:07:22;;;;;;;20.57;9.07;;;;;;;8.57;100.00;97457.56;5076100;28;20200;-69
2024/02/01 11:09:49;;;;;;;17.53;8.13;;;;;;;8.42;100.00;97457.28;5074849;28;20238;-69
2024/02/01 11:12:22;;;;;;;24.47;9.43;;;;;;;8.53;100.00;97456.19;5075946;28;20249;-69
2024/02/01 11:14:49;;;;;;;21.97;9.13;;;;;;;8.28;100.00;97461.09;5076793;28;20206;-69
2024/02/01 11:17:19;;;;;;;19.27;9.27;;;;;;;8.54;100.00;97460.47;5075358;28;20224;-69
2024/02/01 11:19:50;;;;;;;21.23;9.33;;;;;;;8.51;100.00;97452.88;5074871;28;20231;-69
2024/02/01 11:22:17;;;;;;;23.10;9.03;;;;;;;8.36;100.00;97452.53;5075926;28;20312;-69
2024/02/01 11:24:45;;;;;;;20.57;8.40;;;;;;;8.30;100.00;97448.66;5075944;28;20623;-69
2024/02/01 11:27:13;;;;;;;22.40;10.13;;;;;;;8.43;100.00;97444.00;5076419;28;20589;-69
2024/02/01 11:29:46;;;;;;;27.50;10.03;;;;;;;8.55;100.00;97446.38;5075572;28;20235;-69
2024/02/01 11:32:17;;;;;;;21.73;9.63;;;;;;;8.67;100.00;97442.66;5076126;28;20207;-69
2024/02/01 11:34:49;;;;;;;25.17;9.03;;;;;;;8.59;100.00;97442.50;5076076;28;20200;-69
2024/02/01 11:37:17;;;;;;;22.43;8.90;;;;;;;8.60;100.00;97441.56;5076365;28;20399;-69
2024/02/01 11:39:45;;;;;;;31.87;11.10;;;;;;;8.69;100.00;97442.53;5074983;28;20649;-70
2024/02/01 11:42:12;;;;;;;20.47;7.27;;;;;;;8.84;100.00;97434.09;5076068;28;20211;-69
2024/02/01 11:44:40;;;;;;;23.97;9.17;;;;;;;8.69;100.00;97432.84;5076136;28;20200;-69
2024/02/01 11:47:07;;;;;;;25.33;8.70;;;;;;;8.97;100.00;97436.47;5075634;28;20212;-69
2024/02/01 11:49:36;;;;;;;18.00;7.63;;;;;;;9.02;100.00;97432.44;5075174;28;20594;-69
2024/02/01 11:52:17;;;;;;;18.50;7.80;;;;;;;9.32;100.00;97427.03;5076464;28;20238;-68
2024/02/01 11:54:46;;;;;;;19.00;8.30;;;;;;;9.36;100.00;97428.41;5076602;28;20294;-68
2024/02/01 11:57:17;;;;;;;21.03;9.20;;;;;;;9.58;100.00;97417.56;5076702;28;20231;-69
2024/02/01 11:59:44;;;;;;;17.60;6.87;;;;;;;9.19;100.00;97423.88;5075251;28;20601;-69
2024/02/01 12:02:11;;;;;;;12.07;5.70;;;;;;;9.06;100.00;97418.03;5075299;28;20204;-69
2024/02/01 12:04:40;;;;;;;13.03;6.33;;;;;;;9.17;100.00;97416.09;5075819;28;20208;-69
2024/02/01 12:07:08;;;;;;;20.33;7.70;;;;;;;9.39;100.00;97410.50;5075808;28;20331;-69